Eikamaru No.2 — JD3056 — position and weather

sailwx.info

Track history (hours):
 
Tides and Currents Weather Stations Pressure Air Temp Water Temp Dewpoint Dewpoint Depression Visibility Wind Speed Wind Dir Waves Ship Positions

Eikamaru No.2

Last reported at 2016-Apr-29 19:33 UTC. Time now 2016-Apr-29 19:41 UTC.
Position N 35°29' E 139°55'.

Length 60 m; draft 3.3 m.

Type: Tanker. MMSI: 431001342.

Date/timePositionNaut miles runAvg speedWind from/ knotsBaromVisibWave heightAir tempDewpointWater temp
2016-Apr-29 19:33N 35°29' E 139°55'0 0.0
2016-Apr-29 18:33N 35°29' E 139°55'0 0.0
2016-Apr-29 17:33N 35°29' E 139°55'0 0.0
2016-Apr-29 16:34N 35°29' E 139°55'0 0.0
2016-Apr-29 15:34N 35°29' E 139°55'0 0.0
2016-Apr-29 14:34N 35°29' E 139°55'7 7.5
2016-Apr-29 13:33N 35°25' E 139°47'9 9.3
2016-Apr-29 12:33N 35°16' E 139°47'1010.2
2016-Apr-29 11:33N 35°06' E 139°43'240 9.2
2016-Apr-28 09:32N 34°05' E 135°02'1212.5
2016-Apr-28 08:32N 34°17' E 135°03'1312.6
2016-Apr-28 07:30N 34°28' E 135°12'1211.9
2016-Apr-28 06:31N 34°36' E 135°22'3 3.5
2016-Apr-28 05:33N 34°34' E 135°25'0 0.0
2016-Apr-28 04:34N 34°34' E 135°25'0 0.0
2016-Apr-28 03:34N 34°34' E 135°25'0 0.3
2016-Apr-28 02:33N 34°34' E 135°25'4 4.2
2016-Apr-28 01:33N 34°38' E 135°23'2 1.8
2016-Apr-28 00:33N 34°40' E 135°25'0 0.0
2016-Apr-27 23:33N 34°40' E 135°25'3 2.9
2016-Apr-27 22:34N 34°39' E 135°21'5 4.5
2016-Apr-27 21:33N 34°36' E 135°18'1110.7
2016-Apr-27 20:34N 34°27' E 135°11'1010.4
2016-Apr-27 19:33N 34°18' E 135°04'1010.2
2016-Apr-27 18:33N 34°08' E 135°03'  
2016-Apr-25 13:31N 34°59' E 140°09'61 7.6
2016-Apr-25 05:33N 35°54' E 140°41'1 0.6
2016-Apr-25 04:32N 35°53' E 140°41'0 0.0
2016-Apr-25 03:32N 35°53' E 140°41'0 0.0
2016-Apr-25 02:33N 35°53' E 140°41'0 0.0
2016-Apr-25 01:33N 35°53' E 140°41'0 0.0
2016-Apr-25 00:33N 35°53' E 140°41'0 0.0
2016-Apr-24 23:33N 35°53' E 140°41'0 0.0
2016-Apr-24 22:33N 35°53' E 140°41'4 3.9
2016-Apr-24 21:34N 35°57' E 140°42'0 0.0
2016-Apr-24 20:33N 35°57' E 140°42'0 0.0
2016-Apr-24 19:32N 35°57' E 140°42'0 0.0
2016-Apr-24 18:33N 35°57' E 140°42'1 1.0
2016-Apr-24 17:34N 35°58' E 140°43'1111.3
2016-Apr-24 16:34N 35°49' E 140°51'1010.4
2016-Apr-24 15:34N 35°39' E 140°54'1211.9
2016-Apr-24 14:33N 35°29' E 140°45'1211.7
2016-Apr-24 13:33N 35°19' E 140°37'1212.4
2016-Apr-24 12:33N 35°10' E 140°28'1212.3
2016-Apr-24 11:33N 35°02' E 140°16'1211.6
2016-Apr-24 10:33N 34°57' E 140°03'1110.7
2016-Apr-24 09:30N 34°53' E 139°50'10 9.8
2016-Apr-24 08:29N 35°01' E 139°44'1112.0
2016-Apr-24 07:33N 35°12' E 139°46'1111.3
2016-Apr-24 06:33N 35°23' E 139°42'9 9.4
2016-Apr-24 05:33N 35°32' E 139°45'0 0.1
2016-Apr-24 04:33N 35°32' E 139°45'0 0.0
2016-Apr-24 03:33N 35°32' E 139°45'0 0.0
2016-Apr-24 02:33N 35°32' E 139°45'0 0.0
2016-Apr-24 01:33N 35°32' E 139°45'0 0.0
2016-Apr-24 00:33N 35°32' E 139°45'0 0.0
2016-Apr-23 23:33N 35°32' E 139°45'4 3.9
2016-Apr-23 22:33N 35°29' E 139°49'0 0.0
2016-Apr-23 21:33N 35°29' E 139°49'4 4.2
2016-Apr-23 20:33N 35°26' E 139°47'1010.1
2016-Apr-23 19:33N 35°16' E 139°47'1110.5
2016-Apr-23 18:33N 35°05' E 139°44'1110.7
2016-Apr-23 17:31N 34°58' E 139°33'1111.7
2016-Apr-23 16:33N 34°52' E 139°22'231 9.5
2016-Apr-22 16:11N 34°05' E 134°48'34 1.0
2016-Apr-21 07:29N 34°37' E 134°58'1010.7
2016-Apr-21 06:33N 34°35' E 135°10'1212.2
2016-Apr-21 05:33N 34°33' E 135°25'1 0.1
2016-Apr-20 23:31N 34°33' E 135°24'4 4.2
2016-Apr-20 22:29N 34°33' E 135°19'0 0.0
2016-Apr-20 21:33N 34°33' E 135°19'0 0.0
2016-Apr-20 20:33N 34°33' E 135°19'0 0.0
2016-Apr-20 19:33N 34°33' E 135°19'0 0.0
2016-Apr-20 18:31N 34°33' E 135°19'0 0.0
2016-Apr-20 17:33N 34°33' E 135°19'0 0.0
2016-Apr-20 16:32N 34°33' E 135°19'0 0.0
2016-Apr-20 15:33N 34°33' E 135°19'0 0.0
2016-Apr-20 14:33N 34°33' E 135°19'0 0.0
2016-Apr-20 13:33N 34°33' E 135°19'2 2.1
2016-Apr-20 12:33N 34°34' E 135°16'1110.9
2016-Apr-20 11:33N 34°36' E 135°03'9 8.0
2016-Apr-20 10:22N 34°34' E 134°52'  
Track history (hours):
 
Tides and Currents Weather Stations Pressure Air Temp Water Temp Dewpoint Dewpoint Depression Visibility Wind Speed Wind Dir Waves Ship Positions

Eikamaru No.2

Last reported at 2016-Apr-29 19:33 UTC. Time now 2016-Apr-29 19:41 UTC.
Position N 35°29' E 139°55'.

Length 60 m; draft 3.3 m.

Type: Tanker. MMSI: 431001342.

Date/timePositionNaut miles runAvg speedWind from/ knotsBaromVisibWave heightAir tempDewpointWater temp
2016-Apr-29 19:33N 35°29' E 139°55'0 0.0
2016-Apr-29 18:33N 35°29' E 139°55'0 0.0
2016-Apr-29 17:33N 35°29' E 139°55'0 0.0
2016-Apr-29 16:34N 35°29' E 139°55'0 0.0
2016-Apr-29 15:34N 35°29' E 139°55'0 0.0
2016-Apr-29 14:34N 35°29' E 139°55'7 7.5
2016-Apr-29 13:33N 35°25' E 139°47'9 9.3
2016-Apr-29 12:33N 35°16' E 139°47'1010.2
2016-Apr-29 11:33N 35°06' E 139°43'240 9.2
2016-Apr-28 09:32N 34°05' E 135°02'1212.5
2016-Apr-28 08:32N 34°17' E 135°03'1312.6
2016-Apr-28 07:30N 34°28' E 135°12'1211.9
2016-Apr-28 06:31N 34°36' E 135°22'3 3.5
2016-Apr-28 05:33N 34°34' E 135°25'0 0.0
2016-Apr-28 04:34N 34°34' E 135°25'0 0.0
2016-Apr-28 03:34N 34°34' E 135°25'0 0.3
2016-Apr-28 02:33N 34°34' E 135°25'4 4.2
2016-Apr-28 01:33N 34°38' E 135°23'2 1.8
2016-Apr-28 00:33N 34°40' E 135°25'0 0.0
2016-Apr-27 23:33N 34°40' E 135°25'3 2.9
2016-Apr-27 22:34N 34°39' E 135°21'5 4.5
2016-Apr-27 21:33N 34°36' E 135°18'1110.7
2016-Apr-27 20:34N 34°27' E 135°11'1010.4
2016-Apr-27 19:33N 34°18' E 135°04'1010.2
2016-Apr-27 18:33N 34°08' E 135°03'  
2016-Apr-25 13:31N 34°59' E 140°09'61 7.6
2016-Apr-25 05:33N 35°54' E 140°41'1 0.6
2016-Apr-25 04:32N 35°53' E 140°41'0 0.0
2016-Apr-25 03:32N 35°53' E 140°41'0 0.0
2016-Apr-25 02:33N 35°53' E 140°41'0 0.0
2016-Apr-25 01:33N 35°53' E 140°41'0 0.0
2016-Apr-25 00:33N 35°53' E 140°41'0 0.0
2016-Apr-24 23:33N 35°53' E 140°41'0 0.0
2016-Apr-24 22:33N 35°53' E 140°41'4 3.9
2016-Apr-24 21:34N 35°57' E 140°42'0 0.0
2016-Apr-24 20:33N 35°57' E 140°42'0 0.0
2016-Apr-24 19:32N 35°57' E 140°42'0 0.0
2016-Apr-24 18:33N 35°57' E 140°42'1 1.0
2016-Apr-24 17:34N 35°58' E 140°43'1111.3
2016-Apr-24 16:34N 35°49' E 140°51'1010.4
2016-Apr-24 15:34N 35°39' E 140°54'1211.9
2016-Apr-24 14:33N 35°29' E 140°45'1211.7
2016-Apr-24 13:33N 35°19' E 140°37'1212.4
2016-Apr-24 12:33N 35°10' E 140°28'1212.3
2016-Apr-24 11:33N 35°02' E 140°16'1211.6
2016-Apr-24 10:33N 34°57' E 140°03'1110.7
2016-Apr-24 09:30N 34°53' E 139°50'10 9.8
2016-Apr-24 08:29N 35°01' E 139°44'1112.0
2016-Apr-24 07:33N 35°12' E 139°46'1111.3
2016-Apr-24 06:33N 35°23' E 139°42'9 9.4
2016-Apr-24 05:33N 35°32' E 139°45'0 0.1
2016-Apr-24 04:33N 35°32' E 139°45'0 0.0
2016-Apr-24 03:33N 35°32' E 139°45'0 0.0
2016-Apr-24 02:33N 35°32' E 139°45'0 0.0
2016-Apr-24 01:33N 35°32' E 139°45'0 0.0
2016-Apr-24 00:33N 35°32' E 139°45'0 0.0
2016-Apr-23 23:33N 35°32' E 139°45'4 3.9
2016-Apr-23 22:33N 35°29' E 139°49'0 0.0
2016-Apr-23 21:33N 35°29' E 139°49'4 4.2
2016-Apr-23 20:33N 35°26' E 139°47'1010.1
2016-Apr-23 19:33N 35°16' E 139°47'1110.5
2016-Apr-23 18:33N 35°05' E 139°44'1110.7
2016-Apr-23 17:31N 34°58' E 139°33'1111.7
2016-Apr-23 16:33N 34°52' E 139°22'231 9.5
2016-Apr-22 16:11N 34°05' E 134°48'34 1.0
2016-Apr-21 07:29N 34°37' E 134°58'1010.7
2016-Apr-21 06:33N 34°35' E 135°10'1212.2
2016-Apr-21 05:33N 34°33' E 135°25'1 0.1
2016-Apr-20 23:31N 34°33' E 135°24'4 4.2
2016-Apr-20 22:29N 34°33' E 135°19'0 0.0
2016-Apr-20 21:33N 34°33' E 135°19'0 0.0
2016-Apr-20 20:33N 34°33' E 135°19'0 0.0
2016-Apr-20 19:33N 34°33' E 135°19'0 0.0
2016-Apr-20 18:31N 34°33' E 135°19'0 0.0
2016-Apr-20 17:33N 34°33' E 135°19'0 0.0
2016-Apr-20 16:32N 34°33' E 135°19'0 0.0
2016-Apr-20 15:33N 34°33' E 135°19'0 0.0
2016-Apr-20 14:33N 34°33' E 135°19'0 0.0
2016-Apr-20 13:33N 34°33' E 135°19'2 2.1
2016-Apr-20 12:33N 34°34' E 135°16'1110.9
2016-Apr-20 11:33N 34°36' E 135°03'9 8.0
2016-Apr-20 10:22N 34°34' E 134°52'  

Dump ship's entire track history